Time;durP1;ratioP1;P1;durP2;ratioP2;P2;SDS_P1;SDS_P2;PMS_P1;PMS_P2;Temp;Humidity;BMP_temperature;BMP_pressure;BME280_temperature;BME280_humidity;BME280_pressure;Samples;Min_cycle;Max_cycle;Signal;HPM_P1;HPM_P2
2023/01/24 00:00:05;;;;;;;0.82;0.82;;;;;;;2.50;86.01;100964.69;5076363;28;19943;-69
2023/01/24 00:02:34;;;;;;;1.67;1.35;;;;;;;2.56;85.66;100972.56;5076758;28;20090;-69
2023/01/24 00:05:05;;;;;;;0.65;0.65;;;;;;;2.55;85.30;100970.84;5076520;28;20406;-69
2023/01/24 00:07:34;;;;;;;1.42;1.33;;;;;;;2.53;85.31;100969.88;5076167;28;20072;-69
2023/01/24 00:10:05;;;;;;;4.93;1.67;;;;;;;2.52;86.19;100970.66;5076181;28;20047;-69
2023/01/24 00:12:34;;;;;;;2.00;1.80;;;;;;;2.53;85.42;100969.88;5076524;28;20040;-69
2023/01/24 00:15:03;;;;;;;2.07;1.93;;;;;;;2.51;86.43;100966.44;5076001;28;20482;-68
2023/01/24 00:17:31;;;;;;;1.47;1.37;;;;;;;2.51;86.09;100961.38;5075985;28;20498;-69
2023/01/24 00:20:00;;;;;;;2.40;1.23;;;;;;;2.51;86.45;100965.56;5075984;28;20119;-69
2023/01/24 00:22:30;;;;;;;0.98;0.98;;;;;;;2.52;85.84;100968.16;5075942;28;20040;-69
2023/01/24 00:24:59;;;;;;;2.70;2.15;;;;;;;2.46;86.20;100967.84;5075713;28;20422;-69
2023/01/24 00:27:31;;;;;;;1.48;1.38;;;;;;;2.43;86.46;100972.72;5075777;28;20044;-70
2023/01/24 00:30:00;;;;;;;0.85;0.80;;;;;;;2.42;85.88;100971.00;5074736;28;20110;-69
2023/01/24 00:32:29;;;;;;;1.67;1.58;;;;;;;2.42;86.58;100968.47;5075820;28;20045;-69
2023/01/24 00:34:58;;;;;;;1.00;1.00;;;;;;;2.42;85.91;100975.16;5075957;28;20486;-69
2023/01/24 00:37:27;;;;;;;0.65;0.65;;;;;;;2.38;86.59;100973.25;5075616;28;20046;-69
2023/01/24 00:39:57;;;;;;;2.38;2.05;;;;;;;2.39;86.26;100970.84;5075984;28;20118;-69
2023/01/24 00:42:26;;;;;;;0.77;0.77;;;;;;;2.39;86.71;100975.88;5074757;28;20504;-69
2023/01/24 00:44:55;;;;;;;1.38;1.27;;;;;;;2.39;86.09;100980.91;5075558;28;20044;-69
2023/01/24 00:47:25;;;;;;;1.27;1.02;;;;;;;2.41;85.72;100983.50;5075424;28;20037;-69
2023/01/24 00:49:54;;;;;;;0.70;0.70;;;;;;;2.40;86.59;100982.63;5074302;28;20044;-69
2023/01/24 00:52:23;;;;;;;0.70;0.70;;;;;;;2.40;86.65;100982.63;5074243;28;20041;-69
2023/01/24 00:54:52;;;;;;;2.05;1.55;;;;;;;2.38;86.56;100974.13;5075541;28;20492;-69
2023/01/24 00:57:24;;;;;;;0.65;0.65;;;;;;;2.42;86.09;100983.59;5075317;28;20036;-69
2023/01/24 00:59:55;;;;;;;0.60;0.60;;;;;;;2.37;86.28;100972.41;5075236;28;20098;-69
2023/01/24 01:02:25;;;;;;;0.75;0.75;;;;;;;2.38;86.33;100984.19;5075545;28;20052;-69
2023/01/24 01:04:54;;;;;;;1.75;1.58;;;;;;;2.38;86.05;100985.84;5090837;28;20068;-69
2023/01/24 01:07:24;;;;;;;0.57;0.57;;;;;;;2.35;86.23;100989.06;5075377;28;20388;-69
2023/01/24 01:09:54;;;;;;;1.35;1.25;;;;;;;2.39;86.79;100993.50;5075031;28;20051;-69
2023/01/24 01:12:24;;;;;;;0.80;0.80;;;;;;;2.42;86.17;100991.16;5090673;28;20066;-69
2023/01/24 01:14:53;;;;;;;2.60;1.40;;;;;;;2.42;86.18;100995.31;5074951;28;20053;-69
2023/01/24 01:17:23;;;;;;;4.32;1.58;;;;;;;2.41;86.54;100991.94;5073604;28;20040;-69
2023/01/24 01:19:52;;;;;;;1.70;1.60;;;;;;;2.37;86.36;100987.53;5075042;28;20557;-69
2023/01/24 01:22:21;;;;;;;1.23;1.08;;;;;;;2.45;86.65;101003.00;5074776;28;20076;-69
2023/01/24 01:24:51;;;;;;;0.85;0.85;;;;;;;2.48;86.26;101004.06;5074783;28;20132;-69
2023/01/24 01:27:20;;;;;;;1.30;1.20;;;;;;;2.51;87.08;100995.78;5090352;28;20079;-69
2023/01/24 01:29:50;;;;;;;2.17;1.98;;;;;;;2.53;86.97;100999.25;5075031;28;20048;-68
2023/01/24 01:32:20;;;;;;;6.75;3.35;;;;;;;2.52;86.29;100998.38;5074900;28;20135;-69
2023/01/24 01:34:49;;;;;;;1.88;0.95;;;;;;;2.50;86.73;101005.00;5074517;28;20052;-69
2023/01/24 01:37:18;;;;;;;1.73;1.58;;;;;;;2.52;86.67;100997.53;5090353;28;20083;-69
2023/01/24 01:39:47;;;;;;;2.65;2.15;;;;;;;2.53;86.13;101005.16;5074358;28;20040;-68
2023/01/24 01:42:17;;;;;;;1.17;1.17;;;;;;;2.56;86.90;101015.41;5074373;28;20051;-69
2023/01/24 01:44:51;;;;;;;2.97;2.22;;;;;;;2.56;86.85;101010.38;5074329;28;20052;-69
2023/01/24 01:47:26;;;;;;;1.27;1.17;;;;;;;2.58;86.44;101006.28;5074651;28;20053;-69
2023/01/24 01:50:00;;;;;;;4.45;1.95;;;;;;;2.57;86.57;101007.03;5073021;28;20106;-69
2023/01/24 01:52:34;;;;;;;2.40;1.88;;;;;;;2.60;87.15;101007.22;5074210;28;20052;-69
2023/01/24 01:55:08;;;;;;;1.50;1.40;;;;;;;2.62;86.94;101012.31;5074179;28;20056;-69
2023/01/24 01:57:37;;;;;;;0.70;0.70;;;;;;;2.61;86.50;101008.97;5072869;28;20045;-69
2023/01/24 02:00:12;;;;;;;0.70;0.70;;;;;;;2.38;86.58;100966.56;5074297;28;20407;-69
2023/01/24 02:02:46;;;;;;;1.45;1.35;;;;;;;2.61;85.98;101005.56;5073989;28;20052;-69
2023/01/24 02:05:20;;;;;;;0.50;0.50;;;;;;;2.62;86.47;101005.63;5072923;28;20053;-69
2023/01/24 02:07:54;;;;;;;0.40;0.40;;;;;;;2.65;87.02;101009.97;5090015;28;20044;-69
2023/01/24 02:11:37;;;;;;;2.35;1.45;;;;;;;2.62;86.11;100999.72;5072939;28;20402;-69
2023/01/24 02:13:14;;;;;;;1.35;1.25;;;;;;;2.65;86.65;101009.97;5073768;28;20368;-69
2023/01/24 02:18:25;;;;;;;0.63;0.63;;;;;;;2.69;86.14;101007.69;5074087;28;20064;-69
2023/01/24 02:20:54;;;;;;;1.10;0.57;;;;;;;2.68;86.82;101016.06;5072843;28;20482;-70
2023/01/24 02:23:31;;;;;;;0.70;0.70;;;;;;;2.67;86.88;101019.34;5074132;28;20053;-69
2023/01/24 02:26:08;;;;;;;0.88;0.88;;;;;;;2.65;86.61;101012.50;5073734;28;20131;-69
2023/01/24 02:28:38;;;;;;;3.30;1.63;;;;;;;2.66;85.91;101022.63;5073745;28;20045;-69
2023/01/24 02:31:07;;;;;;;;;;;;;;;2.62;85.96;101025.78;5073935;28;20052;-69
2023/01/24 02:33:36;;;;;;;5.78;2.05;;;;;;;2.54;86.13;101024.53;5073613;28;20015;-69
2023/01/24 02:36:22;;;;;;;0.40;0.40;;;;;;;2.45;86.69;101019.00;5073219;28;20052;-69
2023/01/24 02:38:55;;;;;;;0.90;0.90;;;;;;;2.37;86.24;101027.81;5074185;28;20402;-70
2023/01/24 02:41:32;;;;;;;1.17;1.08;;;;;;;2.37;85.73;101022.78;5073514;28;20045;-69
2023/01/24 02:44:06;;;;;;;0.40;0.40;;;;;;;2.35;85.78;101018.44;5072562;28;20142;-69
2023/01/24 02:46:37;;;;;;;1.58;1.48;;;;;;;2.33;86.32;101020.88;5073842;28;20072;-69
2023/01/24 02:49:08;;;;;;;0.70;0.70;;;;;;;2.32;85.57;101015.75;5072985;28;20055;-69
2023/01/24 02:54:17;;;;;;;0.70;0.70;;;;;;;2.36;86.60;101016.00;5073831;28;20048;-69
2023/01/24 02:59:27;;;;;;;1.35;1.25;;;;;;;2.36;86.38;101018.53;5072507;28;20074;-69
2023/01/24 03:01:56;;;;;;;0.82;0.82;;;;;;;2.33;86.01;101014.97;5072387;28;20488;-69
2023/01/24 03:04:25;;;;;;;0.40;0.40;;;;;;;2.31;86.79;101021.56;5072160;28;20040;-69
2023/01/24 03:06:54;;;;;;;2.93;2.73;;;;;;;2.35;86.43;101020.97;5073256;28;20044;-69
2023/01/24 03:09:33;;;;;;;1.67;1.58;;;;;;;2.36;86.34;101020.16;5072406;28;20045;-69
2023/01/24 03:36:13;;;;;;;2.42;2.20;;;;;;;2.23;86.55;101028.72;5071876;28;20491;-69
2023/01/24 03:41:24;;;;;;;0.98;0.98;;;;;;;2.26;86.15;101036.44;5072944;28;20127;-69
2023/01/24 03:43:54;;;;;;;1.75;1.65;;;;;;;2.30;86.92;101035.84;5072049;28;20393;-69
2023/01/24 03:46:24;;;;;;;1.17;1.17;;;;;;;2.31;86.29;101035.03;5071699;28;20165;-69
2023/01/24 03:48:53;;;;;;;;;;;;;;;2.33;86.15;101041.03;5073812;28;20541;-69
2023/01/24 03:54:09;;;;;;;2.43;2.23;;;;;;;2.30;86.87;101029.94;5071739;28;20055;-69
2023/01/24 03:56:48;;;;;;;2.15;1.92;;;;;;;2.35;86.24;101031.88;5072792;28;20300;-69
2023/01/24 03:59:22;;;;;;;1.33;1.27;;;;;;;2.38;86.70;101039.63;5088464;28;20059;-69
2023/01/24 04:01:51;;;;;;;1.58;1.42;;;;;;;2.38;86.21;101034.56;5075046;28;20098;-69
2023/01/24 04:07:17;;;;;;;1.67;1.58;;;;;;;2.37;86.53;101037.91;5076211;28;20049;-69
2023/01/24 04:09:59;;;;;;;1.00;0.98;;;;;;;2.32;86.25;101036.78;5076255;28;20041;-69
2023/01/24 04:12:32;;;;;;;1.77;1.58;;;;;;;2.29;86.08;101039.13;5076160;28;20052;-69
2023/01/24 04:15:04;;;;;;;0.93;0.90;;;;;;;2.25;85.96;101037.25;5076400;28;20063;-69
2023/01/24 04:17:34;;;;;;;4.15;2.20;;;;;;;2.24;86.18;101039.66;5091766;28;20087;-69
2023/01/24 04:20:07;;;;;;;0.60;0.60;;;;;;;2.24;86.50;101035.50;5076344;28;20166;-69
2023/01/24 04:22:36;;;;;;;1.92;1.67;;;;;;;2.23;86.45;101033.75;5075661;28;20063;-69
2023/01/24 04:25:05;;;;;;;0.60;0.60;;;;;;;2.16;86.02;101036.72;5091770;28;20123;-69
2023/01/24 04:27:35;;;;;;;1.15;1.05;;;;;;;2.15;86.08;101047.59;5091441;28;20075;-70
2023/01/24 04:30:12;;;;;;;1.20;1.10;;;;;;;2.14;86.52;101038.28;5076175;28;20052;-69
2023/01/24 04:32:42;;;;;;;0.82;0.82;;;;;;;2.16;86.65;101045.94;5075835;28;20044;-69
2023/01/24 04:35:26;;;;;;;1.15;0.85;;;;;;;2.14;86.95;101042.44;5075744;28;20132;-69
2023/01/24 04:38:01;;;;;;;2.50;2.30;;;;;;;2.14;86.65;101053.41;5075538;28;20106;-69
2023/01/24 04:41:00;;;;;;;0.70;0.70;;;;;;;2.12;86.22;101054.09;5069073;28;20136;-69
2023/01/24 04:43:36;;;;;;;2.17;1.98;;;;;;;2.10;86.68;101050.63;5075897;28;20071;-69
2023/01/24 04:46:07;;;;;;;;;;;;;;;2.11;87.05;101060.81;5091842;28;20056;-69
2023/01/24 04:49:02;;;;;;;10.93;2.38;;;;;;;2.08;86.14;101057.25;5073329;28;20042;-69
2023/01/24 04:51:42;;;;;;;0.80;0.80;;;;;;;2.06;87.20;101064.72;5074480;28;20044;-69
2023/01/24 04:54:18;;;;;;;6.38;3.22;;;;;;;1.83;86.25;101015.63;5074526;28;20106;-69
2023/01/24 04:56:50;;;;;;;1.08;1.02;;;;;;;2.10;87.21;101065.75;5075531;28;20080;-69
2023/01/24 04:59:19;;;;;;;1.63;1.52;;;;;;;2.08;86.14;101063.16;5074359;28;20058;-70
2023/01/24 05:01:51;;;;;;;6.47;3.13;;;;;;;2.06;86.15;101062.22;5075196;28;20091;-69
2023/01/24 05:04:42;;;;;;;0.80;0.80;;;;;;;2.02;87.08;101070.34;5074817;28;20044;-69
2023/01/24 05:07:11;;;;;;;1.90;1.75;;;;;;;2.02;86.43;101062.81;5073936;28;20094;-70
2023/01/24 05:09:43;;;;;;;3.35;3.10;;;;;;;2.01;86.28;101061.97;5075361;28;20110;-70
2023/01/24 05:12:13;;;;;;;2.15;1.15;;;;;;;2.04;87.03;101066.25;5074697;28;20048;-70
2023/01/24 05:14:42;;;;;;;0.67;0.67;;;;;;;2.01;87.20;101061.09;5073802;28;20044;-70
2023/01/24 05:17:12;;;;;;;1.17;1.08;;;;;;;2.07;86.93;101076.50;5074856;28;20128;-69
2023/01/24 05:19:41;;;;;;;3.08;2.30;;;;;;;2.08;86.50;101082.41;5090578;28;20138;-69
2023/01/24 05:22:10;;;;;;;0.98;0.98;;;;;;;2.09;86.97;101085.00;5073590;28;20040;-70
2023/01/24 05:24:43;;;;;;;0.82;0.82;;;;;;;2.11;87.06;101086.00;5074504;28;20067;-69
2023/01/24 05:27:12;;;;;;;2.53;1.75;;;;;;;2.09;86.47;101082.50;5073794;28;20101;-69
2023/01/24 05:29:45;;;;;;;1.25;1.15;;;;;;;2.08;86.55;101083.28;5074536;28;20083;-70
2023/01/24 05:32:16;;;;;;;1.35;1.25;;;;;;;2.04;87.40;101076.34;5073675;28;20048;-69
2023/01/24 05:34:45;;;;;;;2.55;2.35;;;;;;;2.12;87.18;101080.16;5090233;28;20486;-69
2023/01/24 05:37:15;;;;;;;1.88;1.77;;;;;;;2.13;87.45;101086.94;5074434;28;20049;-69
2023/01/24 05:39:45;;;;;;;1.70;1.60;;;;;;;2.16;86.49;101087.09;5074373;28;20056;-69
2023/01/24 05:42:14;;;;;;;1.92;1.80;;;;;;;2.18;87.33;101090.59;5073199;28;20041;-69
2023/01/24 05:44:51;;;;;;;1.17;1.15;;;;;;;2.20;86.34;101099.09;5073206;28;20102;-69
2023/01/24 05:47:22;;;;;;;2.17;1.98;;;;;;;2.25;86.63;101100.22;5074543;28;20090;-69
2023/01/24 05:49:51;;;;;;;0.90;0.90;;;;;;;2.30;87.23;101106.38;5074598;28;20044;-69
2023/01/24 05:52:22;;;;;;;1.75;1.63;;;;;;;2.32;86.92;101098.88;5074298;28;20474;-69
2023/01/24 05:54:53;;;;;;;2.50;2.30;;;;;;;2.33;86.48;101101.47;5073280;28;20059;-69
2023/01/24 05:57:26;;;;;;;2.40;2.20;;;;;;;2.33;87.14;101096.44;5074015;28;20063;-69
2023/01/24 06:00:07;;;;;;;1.08;1.08;;;;;;;2.33;86.73;101106.50;5074155;28;20063;-69
2023/01/24 06:02:43;;;;;;;2.55;1.13;;;;;;;2.32;86.87;101104.78;5074147;28;20155;-69
2023/01/24 06:05:13;;;;;;;1.73;1.63;;;;;;;2.32;87.04;101108.97;5074680;28;20040;-69
2023/01/24 06:07:43;;;;;;;1.45;1.13;;;;;;;2.30;87.11;101115.56;5073937;28;20052;-69
2023/01/24 06:10:12;;;;;;;1.95;1.85;;;;;;;2.30;86.19;101116.44;5073907;28;20090;-69
2023/01/24 06:12:54;;;;;;;1.40;1.30;;;;;;;2.30;87.18;101124.00;5073099;28;20460;-68
2023/01/24 06:15:23;;;;;;;4.53;4.03;;;;;;;2.33;86.94;101131.69;5072803;28;20151;-68
2023/01/24 06:17:54;;;;;;;2.97;2.30;;;;;;;2.34;86.26;101133.44;5089435;28;20101;-68
2023/01/24 06:20:23;;;;;;;3.38;1.60;;;;;;;2.41;86.20;101139.69;5073813;28;20059;-68
2023/01/24 06:22:54;;;;;;;1.23;1.10;;;;;;;2.44;85.97;101134.81;5071759;28;20044;-68
2023/01/24 06:25:26;;;;;;;1.15;0.90;;;;;;;2.48;86.87;101142.63;5089272;28;20078;-69
2023/01/24 06:27:55;;;;;;;1.80;1.52;;;;;;;2.52;85.91;101147.03;5073637;28;20056;-68
2023/01/24 06:30:24;;;;;;;1.40;1.30;;;;;;;2.51;85.95;101147.84;5073894;28;20120;-68
2023/01/24 06:33:18;;;;;;;2.65;1.92;;;;;;;2.51;86.75;101157.91;5073532;28;20052;-68
2023/01/24 06:36:07;;;;;;;0.40;0.40;;;;;;;2.49;86.82;101156.09;5073969;28;20096;-69
2023/01/24 06:38:36;;;;;;;5.72;2.92;;;;;;;2.48;85.63;101155.22;5073434;28;20041;-68
2023/01/24 06:41:16;;;;;;;3.17;2.88;;;;;;;2.42;86.04;101152.38;5073368;28;20090;-69
2023/01/24 06:43:45;;;;;;;1.48;1.38;;;;;;;2.43;86.25;101164.19;5073919;28;20121;-69
2023/01/24 06:46:14;;;;;;;1.83;1.73;;;;;;;2.41;86.23;101163.22;5073732;28;20574;-68
2023/01/24 06:48:46;;;;;;;1.38;1.27;;;;;;;2.40;86.45;101164.00;5073702;28;20094;-68
2023/01/24 06:51:15;;;;;;;4.68;2.65;;;;;;;2.41;86.44;101175.81;5073651;28;20037;-68
2023/01/24 06:53:44;;;;;;;3.40;3.13;;;;;;;2.35;85.79;101170.44;5073391;28;20596;-68
2023/01/24 06:56:13;;;;;;;1.65;1.38;;;;;;;2.40;86.17;101179.13;5073650;28;20144;-68
2023/01/24 06:58:41;;;;;;;0.65;0.65;;;;;;;2.39;85.33;101181.56;5073233;28;20072;-68
2023/01/24 07:01:10;;;;;;;3.10;1.73;;;;;;;2.38;85.57;101180.69;5073632;28;20037;-68
2023/01/24 07:03:39;;;;;;;0.93;0.93;;;;;;;2.45;85.65;101182.75;5073176;28;20040;-68
2023/01/24 07:06:09;;;;;;;1.65;1.55;;;;;;;2.49;85.54;101187.22;5073221;28;20285;-68
2023/01/24 07:08:38;;;;;;;3.67;3.30;;;;;;;2.49;85.42;101184.69;5073194;28;20046;-68
2023/01/24 07:11:07;;;;;;;1.53;1.43;;;;;;;2.51;85.24;101188.16;5073203;28;20036;-67
2023/01/24 07:13:36;;;;;;;2.78;2.15;;;;;;;2.50;85.09;101191.44;5073435;28;20390;-67
2023/01/24 07:16:05;;;;;;;1.30;1.23;;;;;;;2.46;85.35;101194.59;5073116;28;20068;-67
2023/01/24 07:18:34;;;;;;;;;;;;;;;2.48;85.57;101190.50;5073414;28;20044;-69
2023/01/24 07:21:06;;;;;;;0.90;0.90;;;;;;;2.53;85.53;101201.69;5073171;28;19921;-69
2023/01/24 07:23:40;;;;;;;1.85;1.73;;;;;;;2.52;85.63;101205.00;5073118;28;20529;-69
2023/01/24 07:26:11;;;;;;;8.35;2.42;;;;;;;2.46;85.04;101199.63;5073340;28;20052;-69
2023/01/24 07:28:40;;;;;;;7.03;2.78;;;;;;;2.46;85.86;101207.19;5073103;28;20049;-68
2023/01/24 07:31:11;;;;;;;1.23;1.13;;;;;;;2.45;86.03;101204.56;5073168;28;20106;-69
2023/01/24 07:33:40;;;;;;;1.90;1.80;;;;;;;2.47;85.81;101215.63;5073015;28;20127;-69
2023/01/24 07:36:12;;;;;;;1.77;1.67;;;;;;;2.46;85.27;101203.78;5077030;28;20502;-68
2023/01/24 07:38:42;;;;;;;0.55;0.55;;;;;;;2.51;85.39;101215.88;5076830;28;20045;-69
2023/01/24 07:41:11;;;;;;;0.77;0.77;;;;;;;2.57;85.98;101217.84;5076726;28;20048;-69
2023/01/24 07:43:40;;;;;;;2.15;2.05;;;;;;;2.61;85.44;101230.72;5082621;28;20043;-69
2023/01/24 07:46:09;;;;;;;2.73;1.27;;;;;;;2.66;85.45;101236.88;5096866;28;20048;-69
2023/01/24 07:48:38;;;;;;;1.20;1.10;;;;;;;2.73;85.01;101226.34;5095379;28;20090;-69
2023/01/24 07:51:09;;;;;;;2.43;1.63;;;;;;;2.77;84.89;101231.56;5086032;28;20037;-69
2023/01/24 07:53:38;;;;;;;0.95;0.95;;;;;;;2.83;85.40;101226.88;5076391;28;20274;-69
2023/01/24 07:56:08;;;;;;;4.60;1.97;;;;;;;2.91;85.35;101235.69;5089766;28;20122;-69
2023/01/24 07:58:48;;;;;;;2.80;2.25;;;;;;;2.96;85.26;101231.78;5096821;28;20363;-69
2023/01/24 08:01:19;;;;;;;0.90;0.90;;;;;;;3.01;84.79;101227.84;5096578;28;20044;-69
2023/01/24 08:03:49;;;;;;;0.85;0.85;;;;;;;3.08;85.47;101214.78;5089981;28;20057;-69
2023/01/24 08:06:18;;;;;;;3.08;2.72;;;;;;;3.26;84.64;101229.22;5082783;28;20037;-68
2023/01/24 08:08:47;;;;;;;3.13;1.80;;;;;;;3.36;85.06;101228.94;5076514;28;20047;-68
2023/01/24 08:11:17;;;;;;;1.73;1.53;;;;;;;3.48;84.39;101223.66;5076448;28;20118;-69
2023/01/24 08:13:46;;;;;;;0.88;0.88;;;;;;;3.57;84.59;101224.16;5076062;28;20051;-69
2023/01/24 08:16:15;;;;;;;2.85;2.15;;;;;;;3.56;84.88;101217.38;5078668;28;20486;-70
2023/01/24 08:18:45;;;;;;;2.40;2.20;;;;;;;3.63;84.14;101224.47;5081640;28;20134;-69
2023/01/24 08:21:13;;;;;;;1.30;1.20;;;;;;;3.70;84.17;101221.47;5096309;28;20071;-69
2023/01/24 08:23:42;;;;;;;1.70;1.60;;;;;;;3.78;83.98;101219.34;5096013;28;20048;-69
2023/01/24 08:26:11;;;;;;;3.90;2.50;;;;;;;3.85;84.34;101221.38;5095924;28;20071;-69
2023/01/24 08:28:42;;;;;;;1.45;1.35;;;;;;;3.90;83.67;101220.84;5096280;28;20119;-69
2023/01/24 08:31:10;;;;;;;1.50;1.40;;;;;;;3.94;83.31;101215.13;5096050;28;20055;-68
2023/01/24 08:33:40;;;;;;;1.20;1.10;;;;;;;4.05;83.13;101219.06;5096320;28;20486;-69
2023/01/24 08:36:09;;;;;;;0.77;0.75;;;;;;;4.18;83.18;101222.19;5095753;28;20169;-69
2023/01/24 08:38:38;;;;;;;0.60;0.60;;;;;;;4.23;82.54;101220.75;5095933;28;20493;-69
2023/01/24 08:41:07;;;;;;;1.27;1.23;;;;;;;4.33;82.33;101228.88;5086168;28;20300;-69
2023/01/24 08:43:37;;;;;;;;;;;;;;;4.41;82.30;101222.53;5085058;28;20041;-69
2023/01/24 08:46:07;;;;;;;0.75;0.75;;;;;;;4.48;81.75;101231.28;5075029;28;20416;-70
2023/01/24 08:48:35;;;;;;;1.70;1.60;;;;;;;4.53;81.27;101227.31;5088298;28;20446;-69
2023/01/24 08:51:06;;;;;;;0.40;0.40;;;;;;;4.58;81.06;101233.47;5095978;28;20036;-69
2023/01/24 08:53:35;;;;;;;0.65;0.65;;;;;;;4.65;80.81;101235.50;5096250;28;20048;-70
2023/01/24 08:56:06;;;;;;;1.88;1.77;;;;;;;4.73;80.59;101236.69;5095572;28;20071;-69
2023/01/24 08:58:35;;;;;;;3.47;2.22;;;;;;;4.81;80.71;101235.41;5095439;28;20502;-69
2023/01/24 09:01:08;;;;;;;1.93;1.83;;;;;;;4.84;80.04;101245.69;5093925;28;20044;-70
2023/01/24 09:03:37;;;;;;;2.30;2.13;;;;;;;4.95;79.74;101238.56;5084921;28;20563;-69
2023/01/24 09:06:07;;;;;;;2.17;1.85;;;;;;;5.03;79.30;101245.75;5083923;28;20532;-69
2023/01/24 09:08:35;;;;;;;3.83;3.17;;;;;;;5.11;79.80;101251.16;5075237;28;20056;-69
2023/01/24 09:11:04;;;;;;;3.83;2.58;;;;;;;5.18;79.28;101251.50;5075259;28;20047;-69
2023/01/24 09:13:33;;;;;;;2.35;2.15;;;;;;;5.18;78.79;101251.50;5090877;28;20060;-69
2023/01/24 09:16:02;;;;;;;2.33;2.13;;;;;;;5.19;78.64;101244.78;5075094;28;20499;-72
2023/01/24 09:18:32;;;;;;;1.17;0.90;;;;;;;5.15;78.15;101253.03;5074902;28;20045;-70
2023/01/24 09:21:03;;;;;;;2.63;1.83;;;;;;;5.15;78.28;101248.84;5075464;28;20433;-70
2023/01/24 09:23:31;;;;;;;3.63;2.60;;;;;;;5.23;78.32;101255.09;5086661;28;20040;-69
2023/01/24 09:26:00;;;;;;;3.83;1.57;;;;;;;5.35;78.30;101248.06;5074768;28;20052;-69
2023/01/24 09:28:29;;;;;;;1.75;1.50;;;;;;;5.39;77.81;101249.09;5074930;28;20087;-69
2023/01/24 09:30:57;;;;;;;1.23;1.13;;;;;;;5.43;78.03;101241.69;5074918;28;20445;-70
2023/01/24 09:33:26;;;;;;;3.90;3.30;;;;;;;5.50;77.55;101241.94;5074928;28;20044;-69
2023/01/24 09:35:59;;;;;;;2.63;2.42;;;;;;;5.53;77.55;101247.16;5090517;28;20036;-69
2023/01/24 09:38:30;;;;;;;1.83;1.65;;;;;;;5.68;77.29;101236.06;5074425;28;20040;-70
2023/01/24 09:41:09;;;;;;;1.55;1.45;;;;;;;5.72;76.90;101244.63;5088422;28;20048;-69
2023/01/24 09:43:49;;;;;;;1.33;1.23;;;;;;;5.62;76.70;101247.56;5094773;28;20064;-69
2023/01/24 09:46:25;;;;;;;3.38;1.75;;;;;;;5.74;76.60;101248.09;5094493;28;20040;-69
2023/01/24 09:49:06;;;;;;;2.08;1.73;;;;;;;5.88;76.01;101234.38;5094815;28;20398;-69
2023/01/24 09:51:41;;;;;;;2.13;1.77;;;;;;;5.92;75.48;101232.06;5094446;28;20048;-70
2023/01/24 09:54:17;;;;;;;1.40;1.30;;;;;;;5.98;75.62;101236.53;5094250;28;20130;-69
2023/01/24 09:56:48;;;;;;;1.52;1.42;;;;;;;6.00;75.34;101234.91;5094457;28;20105;-69
2023/01/24 09:59:23;;;;;;;1.48;1.35;;;;;;;6.00;75.05;101238.31;5091239;28;20126;-69
2023/01/24 10:01:53;;;;;;;0.50;0.50;;;;;;;5.97;74.96;101234.81;5094544;28;20048;-69
2023/01/24 10:04:26;;;;;;;4.82;1.83;;;;;;;5.98;74.29;101228.91;5094511;28;20501;-67
2023/01/24 10:07:13;;;;;;;1.20;1.05;;;;;;;5.88;74.06;101231.84;5094820;28;20129;-67
2023/01/24 10:09:55;;;;;;;1.92;1.70;;;;;;;5.99;73.69;101230.66;5094262;28;20048;-68
2023/01/24 10:12:47;;;;;;;2.92;2.25;;;;;;;6.10;73.90;101224.38;5094308;28;20047;-68
2023/01/24 10:15:46;;;;;;;2.10;1.08;;;;;;;6.21;73.84;101223.16;5094400;28;20033;-68
2023/01/24 10:18:31;;;;;;;1.85;1.70;;;;;;;6.21;73.21;101218.09;5094000;28;20046;-68
2023/01/24 10:21:20;;;;;;;0.50;0.50;;;;;;;6.20;73.61;101223.06;5093896;28;20044;-68
2023/01/24 10:23:55;;;;;;;2.85;1.95;;;;;;;6.33;73.52;101223.66;5094276;28;20102;-68
2023/01/24 10:26:38;;;;;;;0.65;0.65;;;;;;;6.36;72.86;101221.22;5094245;28;20067;-67
2023/01/24 10:29:15;;;;;;;2.13;1.92;;;;;;;6.46;73.18;101225.00;5094183;28;20073;-68
2023/01/24 10:31:55;;;;;;;2.05;1.67;;;;;;;6.39;72.51;101223.91;5089889;28;20115;-68
2023/01/24 10:34:32;;;;;;;1.40;1.30;;;;;;;6.41;71.68;101219.75;5093693;28;20047;-68
2023/01/24 10:37:06;;;;;;;1.90;1.75;;;;;;;6.50;71.96;101221.81;5089338;28;20036;-68
2023/01/24 10:39:36;;;;;;;1.23;1.17;;;;;;;6.60;71.89;101214.59;5084688;28;20126;-68
2023/01/24 10:42:20;;;;;;;0.75;0.75;;;;;;;6.85;71.97;101215.56;5087962;28;20109;-68
2023/01/24 10:44:49;;;;;;;2.13;1.20;;;;;;;7.01;71.39;101222.97;5093936;28;20138;-68
2023/01/24 10:47:42;;;;;;;1.48;1.38;;;;;;;7.09;71.15;101208.91;5093557;28;20039;-68
2023/01/24 10:50:13;;;;;;;0.60;0.60;;;;;;;7.13;70.92;101200.56;5093918;28;20133;-68
2023/01/24 10:52:42;;;;;;;2.67;1.35;;;;;;;7.12;70.13;101196.31;5086538;28;20048;-68
2023/01/24 10:55:31;;;;;;;1.03;1.03;;;;;;;7.11;70.50;101194.59;5075686;28;20558;-70
2023/01/24 10:58:00;;;;;;;;;;;;;;;7.25;70.05;101188.34;5084086;28;20098;-68
2023/01/24 11:00:33;;;;;;;1.92;1.73;;;;;;;7.39;70.39;101166.84;5093328;28;19920;-70
2023/01/24 11:03:04;;;;;;;0.73;0.73;;;;;;;7.37;69.73;101168.47;5093915;28;20040;-69
2023/01/24 11:05:40;;;;;;;1.58;1.48;;;;;;;7.28;69.60;101163.94;5093957;28;20494;-69
2023/01/24 11:08:18;;;;;;;2.08;1.40;;;;;;;7.39;69.50;101165.16;5090625;28;20052;-69
2023/01/24 11:10:53;;;;;;;3.92;2.15;;;;;;;7.59;69.53;101163.34;5097032;28;20113;-69
2023/01/24 11:13:37;;;;;;;1.77;1.67;;;;;;;7.58;69.32;101159.09;5097852;28;20044;-69
2023/01/24 11:16:08;;;;;;;1.90;1.55;;;;;;;7.39;68.79;101146.53;5097552;28;20040;-69
2023/01/24 11:18:37;;;;;;;3.20;2.05;;;;;;;7.50;69.49;101154.53;5097707;28;20047;-69
2023/01/24 11:21:13;;;;;;;1.60;1.13;;;;;;;7.65;69.54;101152.53;5097317;28;20083;-70
2023/01/24 11:23:43;;;;;;;2.88;2.05;;;;;;;7.82;69.52;101149.75;5097197;28;20059;-69
2023/01/24 11:26:24;;;;;;;1.05;0.98;;;;;;;8.16;68.66;101150.88;5093540;28;20490;-69
2023/01/24 11:28:58;;;;;;;1.98;1.77;;;;;;;8.25;68.72;101146.94;5077417;28;20040;-69
2023/01/24 11:31:31;;;;;;;3.65;2.00;;;;;;;8.04;67.78;101152.19;5090687;28;20047;-69
2023/01/24 11:34:20;;;;;;;0.45;0.45;;;;;;;7.78;67.89;101136.88;5084273;28;20483;-68
2023/01/24 11:37:00;;;;;;;0.60;0.60;;;;;;;7.91;67.47;101137.34;5077125;28;20071;-68
2023/01/24 11:39:40;;;;;;;1.95;0.95;;;;;;;8.07;67.46;101142.13;5078870;28;20044;-68
2023/01/24 11:42:24;;;;;;;3.60;1.85;;;;;;;8.01;67.11;101141.91;5087026;28;20048;-68
2023/01/24 11:45:23;;;;;;;1.08;1.05;;;;;;;8.07;68.03;101138.72;5085538;28;20055;-69
2023/01/24 11:48:03;;;;;;;0.60;0.60;;;;;;;8.22;67.08;101130.72;5076567;28;20051;-70
2023/01/24 11:50:42;;;;;;;2.08;1.55;;;;;;;8.22;67.21;101130.72;5076682;28;20394;-70
2023/01/24 11:53:31;;;;;;;2.73;2.40;;;;;;;8.52;66.98;101126.59;5082296;28;20066;-68
2023/01/24 11:56:06;;;;;;;;;;;;;;;8.55;66.70;101131.78;5091847;28;20317;-68
2023/01/24 11:58:53;;;;;;;0.88;0.88;;;;;;;8.38;66.67;101135.50;5095076;28;19920;-69
2023/01/24 12:01:43;;;;;;;0.93;0.93;;;;;;;8.29;66.85;101130.13;5095153;28;20040;-68
2023/01/24 12:04:38;;;;;;;1.55;1.42;;;;;;;8.46;67.27;101123.88;5096564;28;20044;-68
2023/01/24 12:07:13;;;;;;;0.60;0.60;;;;;;;8.37;66.71;101134.66;5058904;28;20406;-68
2023/01/24 12:09:49;;;;;;;1.23;1.15;;;;;;;8.40;66.75;101126.22;5089689;28;20036;-68
2023/01/24 12:12:24;;;;;;;0.60;0.60;;;;;;;8.46;67.10;101121.34;5096317;28;20059;-68
2023/01/24 12:15:16;;;;;;;2.20;1.90;;;;;;;8.48;66.91;101119.72;5093407;28;20539;-68
2023/01/24 12:18:10;;;;;;;2.58;1.23;;;;;;;8.35;67.22;101099.81;5080815;28;20036;-68
2023/01/24 12:21:01;;;;;;;2.35;1.20;;;;;;;8.68;66.51;101118.63;5083601;28;20044;-68
2023/01/24 12:23:40;;;;;;;2.25;2.03;;;;;;;8.74;66.34;101113.72;5095855;28;20064;-68
2023/01/24 12:26:16;;;;;;;1.88;1.23;;;;;;;8.76;65.92;101107.84;5089608;28;20098;-68
2023/01/24 12:28:52;;;;;;;1.40;1.27;;;;;;;8.67;66.27;101106.72;5082546;28;20075;-68
2023/01/24 12:31:32;;;;;;;2.10;1.77;;;;;;;8.82;66.70;101106.31;5075791;28;20049;-68
2023/01/24 12:34:08;;;;;;;1.50;1.33;;;;;;;9.01;65.61;101106.88;5075867;28;20043;-67
2023/01/24 12:36:42;;;;;;;2.50;2.30;;;;;;;8.99;65.71;101105.13;5074830;28;20502;-68
2023/01/24 12:39:20;;;;;;;1.30;1.20;;;;;;;8.95;65.49;101104.16;5076028;28;20044;-68
2023/01/24 12:41:55;;;;;;;3.50;1.95;;;;;;;9.03;66.01;101097.59;5075884;28;20541;-68